Time;durP1;ratioP1;P1;durP2;ratioP2;P2;SDS_P1;SDS_P2;PMS_P1;PMS_P2;Temp;Humidity;BMP_temperature;BMP_pressure;BME280_temperature;BME280_humidity;BME280_pressure;Samples;Min_cycle;Max_cycle;Signal;HPM_P1;HPM_P2
2021/05/20 00:01:48;;;;;;;7.10;6.50;;;10.40;99.90;;;;;;5048333;28;20243;-53
2021/05/20 00:04:16;;;;;;;7.27;6.57;;;10.40;99.90;;;;;;5050636;28;20801;-56
2021/05/20 00:06:45;;;;;;;9.40;8.00;;;10.40;99.90;;;;;;5067559;28;20235;-55
2021/05/20 00:09:15;;;;;;;8.70;7.90;;;10.30;99.90;;;;;;5057756;28;20343;-55
2021/05/20 00:11:44;;;;;;;8.23;7.50;;;10.30;99.90;;;;;;5050515;28;20237;-53
2021/05/20 00:14:12;;;;;;;8.07;7.37;;;10.30;99.90;;;;;;5050629;28;20265;-52
2021/05/20 00:16:40;;;;;;;8.43;7.63;;;10.30;99.90;;;;;;5052095;28;20236;-54
2021/05/20 00:19:09;;;;;;;8.67;7.87;;;10.30;99.90;;;;;;5053298;28;20707;-53
2021/05/20 00:21:38;;;;;;;8.50;7.70;;;10.30;99.90;;;;;;5054255;28;20242;-55
2021/05/20 00:24:11;;;;;;;8.30;7.60;;;10.30;99.90;;;;;;5054577;28;20259;-55
2021/05/20 00:26:40;;;;;;;9.00;8.20;;;10.30;99.90;;;;;;5053233;28;20727;-53
2021/05/20 00:29:08;;;;;;;9.10;8.20;;;10.20;99.90;;;;;;5051224;28;20236;-53
2021/05/20 00:31:36;;;;;;;9.07;8.03;;;10.30;99.90;;;;;;5067390;28;20233;-55
2021/05/20 00:34:05;;;;;;;8.53;7.70;;;10.30;99.90;;;;;;5073018;28;20641;-53
2021/05/20 00:36:35;;;;;;;8.30;7.50;;;10.30;99.90;;;;;;5071539;28;20229;-55
2021/05/20 00:39:05;;;;;;;8.27;7.47;;;10.30;99.90;;;;;;5074537;28;20292;-51
2021/05/20 00:41:33;;;;;;;8.50;7.70;;;10.30;99.90;;;;;;5071579;28;20242;-54
2021/05/20 00:44:01;;;;;;;8.57;7.87;;;10.20;99.90;;;;;;5056575;28;20659;-53
2021/05/20 00:46:29;;;;;;;8.37;7.63;;;10.20;99.90;;;;;;5047327;28;20323;-54
2021/05/20 00:48:57;;;;;;;9.03;8.13;;;10.30;99.90;;;;;;5050702;28;20229;-55
2021/05/20 00:51:25;;;;;;;9.13;8.23;;;10.20;99.90;;;;;;5054191;28;20336;-53
2021/05/20 00:53:54;;;;;;;8.40;7.60;;;10.20;99.90;;;;;;5051979;28;20293;-52
2021/05/20 00:56:24;;;;;;;8.57;7.77;;;10.20;99.90;;;;;;5055724;28;20531;-54
2021/05/20 00:58:52;;;;;;;8.93;8.13;;;10.20;99.90;;;;;;5036556;28;20257;-52
2021/05/20 01:01:20;;;;;;;8.37;7.50;;;10.10;99.90;;;;;;5047471;28;20244;-52
2021/05/20 01:03:48;;;;;;;7.57;6.80;;;10.10;99.90;;;;;;5050831;28;20294;-54
2021/05/20 01:06:17;;;;;;;8.10;7.40;;;10.10;99.90;;;;;;5052762;28;20628;-55
2021/05/20 01:08:45;;;;;;;8.47;7.57;;;10.10;99.90;;;;;;5052475;28;20233;-53
2021/05/20 01:11:15;;;;;;;8.27;7.30;;;10.10;99.90;;;;;;5053433;28;20240;-56
2021/05/20 01:13:43;;;;;;;8.33;7.53;;;10.10;99.90;;;;;;5050706;28;20793;-52
2021/05/20 01:16:12;;;;;;;7.77;7.07;;;10.20;99.90;;;;;;5053311;28;20741;-57
2021/05/20 01:18:41;;;;;;;8.90;7.53;;;10.10;99.90;;;;;;5053052;28;20292;-56
2021/05/20 01:21:11;;;;;;;9.13;7.43;;;10.10;99.90;;;;;;5044153;28;20662;-55
2021/05/20 01:23:40;;;;;;;8.10;7.30;;;10.10;99.90;;;;;;5036772;28;20284;-55
2021/05/20 01:26:12;;;;;;;7.67;6.90;;;10.10;99.90;;;;;;5042035;28;20229;-55
2021/05/20 01:28:40;;;;;;;8.47;7.63;;;10.10;99.90;;;;;;5050094;28;20319;-55
2021/05/20 01:31:09;;;;;;;8.47;7.53;;;10.10;99.90;;;;;;5049983;28;20593;-54
2021/05/20 01:33:38;;;;;;;7.70;7.00;;;10.10;99.90;;;;;;5052421;28;20314;-51
2021/05/20 01:36:07;;;;;;;8.50;7.70;;;10.10;99.90;;;;;;5051661;28;20236;-52
2021/05/20 01:38:44;;;;;;;8.63;7.30;;;10.10;99.90;;;;;;5050189;28;20622;-55
2021/05/20 01:41:13;;;;;;;8.97;8.07;;;10.10;99.90;;;;;;5048118;28;20240;-53
2021/05/20 01:43:42;;;;;;;7.57;6.87;;;10.00;99.90;;;;;;5046184;28;20235;-55
2021/05/20 01:46:11;;;;;;;7.53;6.90;;;10.00;99.90;;;;;;5049820;28;20243;-54
2021/05/20 01:48:41;;;;;;;8.13;7.33;;;10.00;99.90;;;;;;5062504;28;20237;-51
2021/05/20 01:51:12;;;;;;;8.33;7.53;;;10.00;99.90;;;;;;5046478;28;20592;-56
2021/05/20 01:53:44;;;;;;;8.50;7.60;;;9.90;99.90;;;;;;5062828;28;20248;-57
2021/05/20 01:56:15;;;;;;;8.33;7.60;;;9.90;99.90;;;;;;5048712;28;20238;-55
2021/05/20 01:58:43;;;;;;;8.77;7.87;;;9.90;99.90;;;;;;5050324;28;20236;-56
2021/05/20 02:01:13;;;;;;;8.67;7.87;;;9.90;99.90;;;;;;5049369;28;20723;-52
2021/05/20 02:03:43;;;;;;;9.13;8.30;;;9.90;99.90;;;;;;5051238;28;20698;-54
2021/05/20 02:06:13;;;;;;;8.77;7.77;;;10.00;99.90;;;;;;5065050;28;20236;-55
2021/05/20 02:08:43;;;;;;;9.43;8.23;;;9.90;99.90;;;;;;5048159;28;20236;-52
2021/05/20 02:11:12;;;;;;;9.17;8.37;;;9.90;99.90;;;;;;5060334;28;20227;-53
2021/05/20 02:13:39;;;;;;;9.67;8.53;;;9.90;99.90;;;;;;5069087;28;20245;-51
2021/05/20 02:16:09;;;;;;;9.23;8.33;;;9.90;99.90;;;;;;5069120;28;20240;-52
2021/05/20 02:18:39;;;;;;;10.07;9.10;;;9.90;99.90;;;;;;5069389;28;20235;-55
2021/05/20 02:21:09;;;;;;;9.20;8.37;;;9.90;99.90;;;;;;5069489;28;20229;-55
2021/05/20 02:23:38;;;;;;;10.63;9.53;;;9.90;99.90;;;;;;5069393;28;20244;-53
2021/05/20 02:26:07;;;;;;;11.60;9.90;;;9.80;99.90;;;;;;5065334;28;20738;-55
2021/05/20 02:28:36;;;;;;;11.33;10.23;;;9.80;99.90;;;;;;5048347;28;20234;-56
2021/05/20 02:31:04;;;;;;;12.00;10.30;;;9.70;99.90;;;;;;5060341;28;20285;-52
2021/05/20 02:33:32;;;;;;;13.37;11.13;;;9.70;99.90;;;;;;5051251;28;20327;-56
2021/05/20 02:36:00;;;;;;;12.57;11.37;;;9.70;99.90;;;;;;5060390;28;20241;-54
2021/05/20 02:38:28;;;;;;;13.50;12.10;;;9.70;99.90;;;;;;5053688;28;20510;-52
2021/05/20 02:40:56;;;;;;;12.57;11.37;;;9.70;99.90;;;;;;5044983;28;20268;-55
2021/05/20 02:43:25;;;;;;;12.83;11.53;;;9.70;99.90;;;;;;5048093;28;20724;-54
2021/05/20 02:45:54;;;;;;;13.50;12.20;;;9.60;99.90;;;;;;5048860;28;20231;-56
2021/05/20 02:48:24;;;;;;;13.47;12.27;;;9.60;99.90;;;;;;5047900;28;20237;-56
2021/05/20 02:50:55;;;;;;;13.60;12.30;;;9.50;99.90;;;;;;5075524;28;20574;-54
2021/05/20 02:53:26;;;;;;;13.93;12.57;;;9.50;99.90;;;;;;5070701;28;20462;-54
2021/05/20 02:55:56;;;;;;;15.83;14.33;;;9.50;99.90;;;;;;5068261;28;20246;-55
2021/05/20 02:58:27;;;;;;;16.87;15.17;;;9.50;99.90;;;;;;5056509;28;20236;-53
2021/05/20 03:00:55;;;;;;;15.23;13.83;;;9.50;99.90;;;;;;5048499;28;20233;-52
2021/05/20 03:03:26;;;;;;;15.07;13.57;;;9.40;99.90;;;;;;5047248;28;20234;-53
2021/05/20 03:05:55;;;;;;;16.63;15.03;;;9.40;99.90;;;;;;5039873;28;20259;-53
2021/05/20 03:08:23;;;;;;;16.77;15.03;;;9.40;99.90;;;;;;5046958;28;20239;-51
2021/05/20 03:10:51;;;;;;;16.70;15.10;;;9.40;99.90;;;;;;5045671;28;20236;-52
2021/05/20 03:13:19;;;;;;;18.03;16.13;;;9.40;99.90;;;;;;5048438;28;20240;-51
2021/05/20 03:15:48;;;;;;;17.60;15.90;;;9.40;99.90;;;;;;5046601;28;20232;-55
2021/05/20 03:18:17;;;;;;;17.40;15.73;;;9.30;99.90;;;;;;5046000;28;20520;-55
2021/05/20 03:20:45;;;;;;;17.07;15.43;;;9.30;99.90;;;;;;5047417;28;20241;-54
2021/05/20 03:23:14;;;;;;;17.43;15.83;;;9.30;99.90;;;;;;5050594;28;20231;-53
2021/05/20 03:25:43;;;;;;;16.47;14.83;;;9.30;99.90;;;;;;5057428;28;20244;-51
2021/05/20 03:28:13;;;;;;;17.20;15.47;;;9.30;99.90;;;;;;5049310;28;20242;-51
2021/05/20 03:30:41;;;;;;;18.13;16.20;;;9.20;99.90;;;;;;5047567;28;20232;-52
2021/05/20 03:33:10;;;;;;;16.03;14.53;;;9.20;99.90;;;;;;5049394;28;20671;-52
2021/05/20 03:35:39;;;;;;;16.70;15.00;;;9.20;99.90;;;;;;5047489;28;20246;-53
2021/05/20 03:38:07;;;;;;;17.17;15.37;;;9.20;99.90;;;;;;5046113;28;20249;-51
2021/05/20 03:40:35;;;;;;;15.27;13.77;;;9.20;99.90;;;;;;5047179;28;20751;-54
2021/05/20 03:43:03;;;;;;;15.57;14.10;;;9.20;99.90;;;;;;5046929;28;20244;-55
2021/05/20 03:45:32;;;;;;;15.80;14.17;;;9.20;99.90;;;;;;5051384;28;20275;-53
2021/05/20 03:48:01;;;;;;;16.03;14.40;;;9.20;99.90;;;;;;5051231;28;20282;-52
2021/05/20 03:50:30;;;;;;;16.00;14.30;;;9.20;99.90;;;;;;4959479;28;20811;-54
2021/05/20 03:52:59;;;;;;;15.47;13.97;;;9.20;99.90;;;;;;1041496;28;10001860;-55
2021/05/20 03:55:28;;;;;;;14.47;13.07;;;9.20;99.90;;;;;;5046931;28;20562;-53
2021/05/20 03:57:57;;;;;;;15.17;13.57;;;9.30;99.90;;;;;;5049188;28;20236;-53
2021/05/20 04:00:27;;;;;;;15.93;14.37;;;9.40;99.90;;;;;;5048197;28;20327;-55
2021/05/20 04:02:55;;;;;;;14.50;13.00;;;9.40;99.90;;;;;;5047403;28;20227;-56
2021/05/20 04:05:23;;;;;;;14.20;12.90;;;9.40;99.90;;;;;;5050903;28;20339;-56
2021/05/20 04:07:52;;;;;;;14.80;13.37;;;9.40;99.90;;;;;;5048358;28;20765;-56
2021/05/20 04:10:21;;;;;;;14.60;13.20;;;9.50;99.90;;;;;;5047656;28;20327;-53
2021/05/20 04:12:49;;;;;;;13.87;12.47;;;9.60;99.90;;;;;;5046899;28;20290;-50
2021/05/20 04:15:18;;;;;;;15.20;13.60;;;9.60;99.90;;;;;;5047327;28;20240;-54
2021/05/20 04:17:46;;;;;;;15.20;13.70;;;9.60;99.90;;;;;;5048002;28;20240;-52
2021/05/20 04:20:16;;;;;;;13.20;11.90;;;9.60;99.90;;;;;;5046687;28;20322;-54
2021/05/20 04:22:45;;;;;;;13.23;11.83;;;9.60;99.90;;;;;;5046586;28;20245;-55
2021/05/20 04:25:14;;;;;;;13.97;12.57;;;9.60;99.90;;;;;;5044842;28;20240;-51
2021/05/20 04:27:44;;;;;;;15.20;13.60;;;9.70;99.90;;;;;;5046379;28;20316;-60
2021/05/20 04:30:15;;;;;;;15.10;13.50;;;9.80;99.90;;;;;;5050905;28;20267;-53
2021/05/20 04:32:45;;;;;;;15.27;13.57;;;9.80;99.90;;;;;;5047629;28;20685;-55
2021/05/20 04:35:14;;;;;;;12.80;11.50;;;9.80;99.90;;;;;;5046416;28;20715;-55
2021/05/20 04:37:42;;;;;;;13.67;12.20;;;9.90;99.90;;;;;;5057065;28;20565;-52
2021/05/20 04:40:14;;;;;;;13.47;12.17;;;9.90;99.90;;;;;;5052954;28;20248;-54
2021/05/20 04:42:42;;;;;;;14.00;12.63;;;10.00;99.90;;;;;;5046006;28;20232;-53
2021/05/20 04:45:13;;;;;;;13.77;12.37;;;10.10;99.90;;;;;;5048207;28;20299;-52
2021/05/20 04:47:41;;;;;;;13.23;11.87;;;10.20;99.90;;;;;;5029335;28;20236;-55
2021/05/20 04:50:12;;;;;;;12.67;11.40;;;10.20;99.90;;;;;;5008780;28;20231;-56
2021/05/20 04:52:41;;;;;;;11.87;10.67;;;10.20;99.90;;;;;;5046769;28;20310;-55
2021/05/20 04:55:13;;;;;;;12.47;11.27;;;10.30;99.90;;;;;;5049958;28;20471;-53
2021/05/20 04:57:43;;;;;;;12.40;11.10;;;10.30;99.90;;;;;;5050443;28;20229;-55
2021/05/20 05:00:15;;;;;;;12.60;11.30;;;10.30;99.90;;;;;;5055457;28;20299;-51
2021/05/20 05:02:43;;;;;;;12.57;11.33;;;10.40;99.90;;;;;;5070098;28;20323;-56
2021/05/20 05:05:12;;;;;;;12.33;11.03;;;10.30;99.90;;;;;;5072382;28;20236;-53
2021/05/20 05:07:42;;;;;;;13.27;11.97;;;10.40;99.90;;;;;;5055063;28;20234;-53
2021/05/20 05:10:13;;;;;;;12.17;10.90;;;10.40;99.90;;;;;;5047840;28;20225;-53
2021/05/20 05:12:43;;;;;;;13.43;11.80;;;10.40;99.90;;;;;;5048382;28;20295;-56
2021/05/20 05:15:11;;;;;;;11.93;10.73;;;10.50;99.90;;;;;;5048785;28;20287;-53
2021/05/20 05:17:40;;;;;;;12.60;11.30;;;10.60;99.90;;;;;;5049244;28;20303;-54
2021/05/20 05:20:10;;;;;;;11.57;10.37;;;10.70;99.90;;;;;;5050417;28;20260;-56
2021/05/20 05:22:39;;;;;;;12.17;10.70;;;10.70;99.90;;;;;;5059772;28;20241;-53
2021/05/20 05:25:09;;;;;;;10.10;9.20;;;10.80;99.90;;;;;;5048632;28;20238;-54
2021/05/20 05:27:38;;;;;;;10.77;9.67;;;10.90;99.90;;;;;;5050894;28;20317;-56
2021/05/20 05:30:09;;;;;;;13.00;10.33;;;10.90;99.90;;;;;;5064397;28;21085;-55
2021/05/20 05:32:38;;;;;;;10.03;9.03;;;10.90;99.90;;;;;;5048333;28;20291;-55
2021/05/20 05:35:09;;;;;;;9.83;8.60;;;11.00;99.90;;;;;;5048247;28;20241;-57
2021/05/20 05:37:38;;;;;;;10.13;9.17;;;11.20;99.90;;;;;;5049143;28;20314;-56
2021/05/20 05:40:08;;;;;;;10.70;9.70;;;11.60;99.90;;;;;;5055797;28;20292;-52
2021/05/20 05:42:37;;;;;;;9.73;8.73;;;11.80;99.90;;;;;;5050390;28;20704;-53
2021/05/20 05:45:08;;;;;;;9.40;8.50;;;12.10;99.90;;;;;;5055185;28;20241;-54
2021/05/20 05:47:37;;;;;;;10.17;9.17;;;12.40;99.90;;;;;;5055520;28;20221;-52
2021/05/20 05:50:10;;;;;;;9.90;8.93;;;12.50;99.90;;;;;;5051480;28;20295;-55
2021/05/20 05:52:38;;;;;;;9.17;8.23;;;12.70;99.90;;;;;;5051077;28;20715;-52
2021/05/20 05:55:09;;;;;;;8.43;7.57;;;12.80;99.90;;;;;;5065356;28;20634;-51
2021/05/20 05:57:39;;;;;;;8.33;7.43;;;13.00;99.90;;;;;;5049081;28;20238;-55
2021/05/20 06:00:09;;;;;;;8.13;6.87;;;13.10;99.90;;;;;;5048996;28;20243;-54
2021/05/20 06:02:46;;;;;;;8.90;6.70;;;13.20;99.90;;;;;;5044489;28;20296;-56
2021/05/20 06:05:15;;;;;;;9.40;6.83;;;13.30;99.90;;;;;;5057299;28;20738;-54
2021/05/20 06:07:45;;;;;;;7.70;6.53;;;13.40;99.90;;;;;;5070377;28;20299;-52
2021/05/20 06:10:13;;;;;;;9.87;6.93;;;13.60;99.90;;;;;;5064233;28;20337;-53
2021/05/20 06:12:43;;;;;;;7.30;6.60;;;13.80;99.90;;;;;;5050033;28;20234;-55
2021/05/20 06:15:12;;;;;;;7.43;6.50;;;13.90;99.90;;;;;;5048772;28;20235;-54
2021/05/20 06:17:40;;;;;;;8.03;6.70;;;14.00;99.90;;;;;;5048193;28;20243;-53
2021/05/20 06:20:10;;;;;;;7.07;6.23;;;14.10;99.90;;;;;;5049835;28;20735;-50
2021/05/20 06:22:38;;;;;;;8.97;6.67;;;14.20;99.90;;;;;;5049186;28;20320;-53
2021/05/20 06:25:07;;;;;;;6.93;6.20;;;14.40;99.90;;;;;;5048797;28;20243;-52
2021/05/20 06:27:36;;;;;;;7.20;6.50;;;14.60;99.90;;;;;;5047471;28;20269;-53
2021/05/20 06:30:06;;;;;;;7.77;6.60;;;14.70;99.90;;;;;;5049988;28;20272;-54
2021/05/20 06:32:36;;;;;;;9.43;6.40;;;14.90;99.90;;;;;;5045937;28;20243;-51
2021/05/20 06:35:05;;;;;;;6.57;5.63;;;14.90;99.90;;;;;;5048694;28;20243;-52
2021/05/20 06:37:33;;;;;;;6.50;5.80;;;15.00;99.90;;;;;;5063192;28;20281;-51
2021/05/20 06:40:01;;;;;;;6.97;6.30;;;15.20;99.90;;;;;;5048046;28;20377;-50
2021/05/20 06:42:29;;;;;;;6.47;5.63;;;15.20;99.90;;;;;;5047275;28;20227;-55
2021/05/20 06:44:57;;;;;;;7.57;6.10;;;15.40;99.90;;;;;;5046212;28;20418;-51
2021/05/20 06:47:26;;;;;;;7.43;6.37;;;15.60;99.90;;;;;;5038193;28;20308;-51
2021/05/20 06:49:55;;;;;;;7.37;6.13;;;15.60;99.90;;;;;;5050551;28;20665;-54
2021/05/20 06:52:22;;;;;;;7.67;6.33;;;15.70;99.90;;;;;;5067166;28;20310;-52
2021/05/20 06:54:50;;;;;;;7.70;6.90;;;15.70;99.90;;;;;;5058138;28;20255;-52
2021/05/20 06:57:23;;;;;;;7.43;6.43;;;15.80;99.90;;;;;;5046688;28;20317;-53
2021/05/20 06:59:57;;;;;;;7.10;6.40;;;15.90;99.90;;;;;;5059115;28;20606;-54
2021/05/20 07:02:26;;;;;;;8.27;5.40;;;16.10;99.90;;;;;;5047275;28;20236;-51
2021/05/20 07:04:56;;;;;;;6.77;6.07;;;16.40;99.90;;;;;;5047904;28;20224;-55
2021/05/20 07:07:25;;;;;;;6.57;5.97;;;16.60;99.90;;;;;;5047376;28;20242;-54
2021/05/20 07:09:54;;;;;;;7.50;6.47;;;16.90;99.90;;;;;;5047886;28;20231;-53
2021/05/20 07:12:23;;;;;;;6.90;6.30;;;16.70;99.90;;;;;;5044816;28;20243;-52
2021/05/20 07:14:51;;;;;;;6.70;5.83;;;16.20;99.90;;;;;;5045380;28;20240;-53
2021/05/20 07:17:19;;;;;;;6.60;5.60;;;16.20;99.90;;;;;;5047011;28;20289;-53
2021/05/20 07:19:49;;;;;;;6.23;5.63;;;16.40;99.90;;;;;;5043215;28;20237;-54
2021/05/20 07:22:17;;;;;;;4.55;3.70;;;16.60;99.90;;;;;;5045597;28;20930;-53
2021/05/20 07:24:45;;;;;;;8.40;5.40;;;17.40;99.90;;;;;;5028974;28;20603;-54
2021/05/20 07:27:13;;;;;;;5.47;4.97;;;18.00;99.90;;;;;;5045489;28;20278;-53
2021/05/20 07:29:41;;;;;;;7.03;5.60;;;17.80;99.90;;;;;;5039780;28;20715;-52
2021/05/20 07:32:15;;;;;;;9.03;5.00;;;17.30;99.90;;;;;;5048020;28;20310;-53
2021/05/20 07:34:43;;;;;;;5.40;4.90;;;16.30;99.90;;;;;;5047617;28;20710;-51
2021/05/20 07:37:12;;;;;;;6.10;4.80;;;16.00;99.90;;;;;;5043537;28;20596;-54
2021/05/20 07:39:40;;;;;;;7.27;4.80;;;16.30;99.90;;;;;;5045000;28;20259;-54
2021/05/20 07:42:10;;;;;;;5.90;4.60;;;16.90;99.90;;;;;;5048223;28;20244;-54
2021/05/20 07:44:39;;;;;;;4.83;4.43;;;17.60;99.90;;;;;;5040597;28;20236;-56
2021/05/20 07:47:08;;;;;;;4.77;4.30;;;16.90;99.90;;;;;;5047398;28;20265;-52
2021/05/20 07:49:37;;;;;;;4.50;4.10;;;16.30;99.90;;;;;;5046411;28;20235;-55
2021/05/20 07:52:07;;;;;;;5.97;4.63;;;16.20;99.90;;;;;;5046306;28;20617;-55
2021/05/20 07:54:37;;;;;;;5.60;4.00;;;16.40;99.90;;;;;;5045886;28;20752;-55
2021/05/20 07:57:06;;;;;;;4.20;3.63;;;16.90;99.90;;;;;;5046863;28;20243;-54
2021/05/20 07:59:34;;;;;;;4.47;4.07;;;17.50;99.90;;;;;;5046279;28;20259;-53
2021/05/20 08:02:09;;;;;;;4.60;4.20;;;17.40;99.90;;;;;;5049175;28;20620;-51
2021/05/20 08:04:39;;;;;;;4.23;3.73;;;17.30;99.90;;;;;;5046584;28;20277;-52
2021/05/20 08:07:28;;;;;;;4.50;4.10;;;17.80;99.90;;;;;;5048238;28;20326;-54
2021/05/20 08:10:12;;;;;;;3.90;3.60;;;18.40;99.90;;;;;;5048589;28;20241;-53
2021/05/20 08:12:40;;;;;;;4.10;3.73;;;19.10;99.90;;;;;;5048306;28;20244;-55
2021/05/20 08:15:09;;;;;;;4.37;3.97;;;19.00;99.90;;;;;;5047557;28;20328;-50
2021/05/20 08:17:37;;;;;;;3.97;3.60;;;19.20;99.90;;;;;;5062270;28;20292;-54
2021/05/20 08:20:07;;;;;;;4.67;3.83;;;19.30;99.90;;;;;;5047785;28;20246;-54
2021/05/20 08:22:38;;;;;;;3.70;3.23;;;19.30;99.90;;;;;;5046011;28;20705;-54
2021/05/20 08:25:10;;;;;;;6.00;4.00;;;19.30;99.90;;;;;;5045612;28;20240;-54
2021/05/20 08:27:39;;;;;;;5.73;3.50;;;19.60;99.90;;;;;;5046694;28;20630;-51
2021/05/20 08:30:09;;;;;;;4.50;4.10;;;19.60;99.90;;;;;;5049221;28;20291;-52
2021/05/20 08:32:37;;;;;;;5.13;4.63;;;19.50;99.90;;;;;;5043424;28;20289;-55
2021/05/20 08:35:06;;;;;;;5.57;4.60;;;19.50;99.90;;;;;;5048372;28;20234;-54
2021/05/20 08:37:35;;;;;;;5.20;4.77;;;19.70;99.90;;;;;;5042743;28;20667;-55
2021/05/20 08:40:08;;;;;;;5.77;5.20;;;20.10;99.90;;;;;;5058908;28;20243;-55
2021/05/20 08:42:37;;;;;;;4.97;4.43;;;20.10;99.90;;;;;;5043636;28;20238;-54
2021/05/20 08:45:18;;;;;;;3.70;3.40;;;20.20;99.90;;;;;;5046804;28;20319;-54
2021/05/20 08:47:50;;;;;;;5.63;4.40;;;20.10;99.90;;;;;;5049941;28;20227;-53
2021/05/20 08:50:22;;;;;;;4.23;3.90;;;20.10;99.90;;;;;;5048223;28;20239;-54
2021/05/20 08:52:51;;;;;;;3.87;3.57;;;20.30;99.90;;;;;;5037040;28;20234;-50
2021/05/20 08:55:24;;;;;;;4.20;3.80;;;20.50;99.90;;;;;;5050039;28;20322;-55
2021/05/20 08:57:55;;;;;;;4.20;3.80;;;20.40;99.90;;;;;;5049877;28;20235;-53
2021/05/20 09:00:27;;;;;;;4.10;3.80;;;20.00;99.90;;;;;;5047217;28;20705;-56
2021/05/20 09:03:05;;;;;;;4.80;3.90;;;19.70;99.90;;;;;;5049812;28;20242;-52
2021/05/20 09:05:33;;;;;;;4.83;3.90;;;19.90;99.90;;;;;;5049810;28;20280;-53
2021/05/20 09:08:04;;;;;;;3.93;3.60;;;19.50;99.90;;;;;;5049767;28;25715;-54
2021/05/20 09:10:35;;;;;;;4.63;3.97;;;18.90;99.90;;;;;;5050576;28;20284;-50
2021/05/20 09:13:05;;;;;;;5.10;4.60;;;18.80;99.90;;;;;;5048868;28;20632;-54
2021/05/20 09:15:37;;;;;;;4.53;4.23;;;19.40;99.90;;;;;;5047216;28;20704;-54
2021/05/20 09:18:13;;;;;;;4.80;4.30;;;19.40;99.90;;;;;;5049784;28;20320;-53
2021/05/20 09:20:44;;;;;;;4.27;3.70;;;19.70;99.90;;;;;;5050430;28;20257;-55
2021/05/20 09:23:18;;;;;;;3.90;3.50;;;19.80;99.90;;;;;;5044295;28;20254;-52
2021/05/20 09:25:51;;;;;;;4.83;3.97;;;19.70;99.90;;;;;;5040859;28;20696;-51
2021/05/20 09:28:35;;;;;;;3.60;3.20;;;18.90;99.90;;;;;;5046613;28;20736;-54
2021/05/20 09:31:03;;;;;;;3.57;3.17;;;18.90;99.90;;;;;;5039594;28;20249;-51
2021/05/20 09:33:31;;;;;;;3.10;2.80;;;19.30;99.90;;;;;;5049079;28;20265;-50
2021/05/20 09:35:59;;;;;;;2.90;2.60;;;19.70;99.90;;;;;;5047899;28;20242;-55
2021/05/20 09:38:28;;;;;;;3.63;2.80;;;20.00;99.90;;;;;;5046459;28;20353;-50
2021/05/20 09:41:00;;;;;;;3.13;2.80;;;20.50;99.90;;;;;;5046827;28;20231;-51
2021/05/20 09:43:31;;;;;;;3.17;2.33;;;20.60;99.90;;;;;;5048636;28;20235;-53
2021/05/20 09:46:03;;;;;;;3.40;2.93;;;20.90;99.90;;;;;;5049222;28;20246;-52
2021/05/20 09:48:35;;;;;;;3.33;2.83;;;20.90;99.90;;;;;;5047154;28;20236;-53
2021/05/20 09:51:06;;;;;;;3.30;3.00;;;20.80;99.90;;;;;;5047754;28;20326;-56
2021/05/20 09:53:45;;;;;;;3.10;2.70;;;20.20;99.90;;;;;;5048124;28;20311;-55
2021/05/20 09:56:14;;;;;;;4.17;2.90;;;19.70;99.90;;;;;;5046224;28;20255;-50
2021/05/20 09:58:55;;;;;;;3.67;2.43;;;19.70;99.90;;;;;;5047318;28;20253;-55
2021/05/20 10:01:23;;;;;;;2.93;2.10;;;20.20;99.90;;;;;;5068936;28;20238;-54
2021/05/20 10:03:52;;;;;;;3.53;2.20;;;20.10;99.90;;;;;;5057080;28;20261;-56
2021/05/20 10:06:35;;;;;;;3.47;2.40;;;19.50;99.90;;;;;;5046095;28;20238;-53
2021/05/20 10:09:05;;;;;;;3.90;3.13;;;19.00;99.90;;;;;;5048139;28;20701;-54
2021/05/20 10:11:36;;;;;;;3.33;3.00;;;18.50;99.90;;;;;;5037426;28;20269;-53
2021/05/20 10:14:06;;;;;;;4.33;3.10;;;18.30;99.90;;;;;;5047935;28;20328;-51
2021/05/20 10:16:38;;;;;;;3.77;3.30;;;18.10;99.90;;;;;;5044464;28;20659;-51
2021/05/20 10:19:07;;;;;;;3.33;3.13;;;17.90;99.90;;;;;;5046185;28;20597;-50
2021/05/20 10:21:35;;;;;;;4.63;3.50;;;17.90;99.90;;;;;;5058174;28;20292;-50
2021/05/20 10:24:08;;;;;;;3.30;3.00;;;17.60;99.90;;;;;;5044264;28;20325;-53
2021/05/20 10:26:39;;;;;;;3.40;2.73;;;17.60;99.90;;;;;;5049701;28;20237;-51
2021/05/20 10:29:10;;;;;;;3.97;2.87;;;17.50;99.90;;;;;;5048782;28;20237;-55
2021/05/20 10:31:42;;;;;;;3.43;3.10;;;17.90;99.90;;;;;;5065450;28;20229;-53
2021/05/20 10:34:14;;;;;;;3.93;3.07;;;18.70;99.90;;;;;;5065938;28;20263;-52
2021/05/20 10:36:59;;;;;;;3.83;3.40;;;19.20;99.90;;;;;;5065836;28;20307;-51
2021/05/20 10:39:28;;;;;;;3.40;3.10;;;18.80;99.90;;;;;;5066539;28;20580;-54
2021/05/20 10:41:57;;;;;;;3.63;3.30;;;18.50;99.90;;;;;;5066623;28;20240;-54
2021/05/20 10:44:26;;;;;;;3.87;3.10;;;18.30;99.90;;;;;;5067289;28;20268;-54
2021/05/20 10:47:03;;;;;;;3.73;2.73;;;18.10;99.90;;;;;;5061768;28;20261;-54
2021/05/20 10:50:00;;;;;;;3.13;2.83;;;18.60;99.90;;;;;;5039575;28;20236;-52
2021/05/20 10:52:49;;;;;;;4.60;2.83;;;19.90;99.90;;;;;;5046106;28;20246;-52
2021/05/20 10:55:18;;;;;;;5.33;3.10;;;21.10;99.90;;;;;;5043798;28;20242;-54
2021/05/20 10:58:01;;;;;;;3.03;2.77;;;21.30;99.90;;;;;;5047122;28;20241;-54
2021/05/20 11:00:40;;;;;;;3.73;2.70;;;21.00;99.90;;;;;;5036904;28;20644;-51
2021/05/20 11:03:10;;;;;;;4.70;2.70;;;20.10;99.90;;;;;;5044708;28;20242;-55
2021/05/20 11:05:57;;;;;;;5.27;2.80;;;20.40;99.90;;;;;;5034476;28;20270;-52
2021/05/20 11:08:54;;;;;;;3.90;2.50;;;21.20;99.90;;;;;;5034260;28;20257;-53
2021/05/20 11:11:58;;;;;;;2.70;2.37;;;21.60;99.90;;;;;;5051817;28;20245;-54
2021/05/20 11:14:47;;;;;;;3.47;2.47;;;20.80;99.90;;;;;;5063764;28;20662;-52
2021/05/20 11:17:45;;;;;;;3.70;2.60;;;20.90;99.90;;;;;;5039917;28;20262;-54
2021/05/20 11:20:46;;;;;;;2.57;2.33;;;20.80;99.90;;;;;;5032364;28;20254;-54
2021/05/20 11:23:25;;;;;;;4.87;2.70;;;21.00;99.90;;;;;;5022054;28;20291;-51
2021/05/20 11:26:18;;;;;;;3.17;2.60;;;20.60;99.90;;;;;;5037219;28;20322;-54
2021/05/20 11:29:09;;;;;;;4.30;2.77;;;20.10;99.90;;;;;;5029229;28;20247;-52
2021/05/20 11:31:41;;;;;;;2.17;1.87;;;19.30;99.90;;;;;;5031776;28;21009;-51
2021/05/20 11:36:54;;;;;;;1.80;1.60;;;16.70;99.90;;;;;;5044064;28;20258;-53
2021/05/20 11:39:22;;;;;;;3.30;1.77;;;16.10;99.90;;;;;;5047579;28;20245;-50
2021/05/20 11:41:52;;;;;;;2.40;2.20;;;15.70;99.90;;;;;;5045300;28;20298;-51
2021/05/20 11:44:22;;;;;;;2.10;1.90;;;15.50;99.90;;;;;;5047242;28;20289;-51
2021/05/20 11:47:05;;;;;;;3.03;2.20;;;15.30;99.90;;;;;;5042374;28;20248;-49
2021/05/20 11:49:34;;;;;;;2.00;1.80;;;15.00;99.90;;;;;;5028468;28;20243;-51
2021/05/20 11:52:07;;;;;;;2.47;2.27;;;14.90;99.90;;;;;;5036368;28;20238;-50
2021/05/20 11:54:37;;;;;;;3.97;2.10;;;14.70;99.90;;;;;;5027522;28;20644;-50
2021/05/20 11:57:08;;;;;;;2.37;2.23;;;14.50;99.90;;;;;;5032872;28;20232;-51
2021/05/20 12:00:00;;;;;;;3.40;2.23;;;14.30;99.90;;;;;;5046266;28;20239;-52
2021/05/20 12:02:33;;;;;;;2.60;2.40;;;14.00;99.90;;;;;;5037088;28;20238;-56
2021/05/20 12:05:06;;;;;;;2.10;1.90;;;13.60;99.90;;;;;;5044313;28;20244;-54
2021/05/20 12:07:37;;;;;;;3.90;2.30;;;13.80;99.90;;;;;;5047997;28;20325;-52
2021/05/20 12:10:12;;;;;;;2.47;2.23;;;13.90;99.90;;;;;;5047652;28;20428;-54
2021/05/20 12:12:42;;;;;;;2.73;2.30;;;14.10;99.90;;;;;;5061028;28;20231;-49
2021/05/20 12:15:13;;;;;;;3.37;2.90;;;14.10;99.90;;;;;;5044921;28;20236;-50
2021/05/20 12:17:47;;;;;;;2.57;2.37;;;14.10;99.90;;;;;;5043574;28;20252;-53
2021/05/20 12:20:17;;;;;;;3.10;2.80;;;14.20;99.90;;;;;;5049915;28;20277;-53
2021/05/20 12:22:47;;;;;;;3.47;2.50;;;14.30;99.90;;;;;;5046480;28;20240;-50
2021/05/20 12:25:17;;;;;;;2.63;2.43;;;14.50;99.90;;;;;;5047302;28;20342;-53
2021/05/20 12:27:48;;;;;;;3.30;2.87;;;14.70;99.90;;;;;;5047993;28;20282;-53
2021/05/20 12:30:22;;;;;;;2.70;2.50;;;14.90;99.90;;;;;;5046178;28;20256;-52
2021/05/20 12:32:54;;;;;;;2.57;2.27;;;15.10;99.90;;;;;;5062335;28;20231;-54
2021/05/20 12:35:26;;;;;;;2.83;2.63;;;15.40;99.90;;;;;;5047533;28;20283;-53
2021/05/20 12:38:07;;;;;;;4.03;2.47;;;14.90;99.90;;;;;;5030754;28;20540;-52
2021/05/20 12:40:39;;;;;;;2.80;2.50;;;15.20;99.90;;;;;;5040531;28;20699;-52
2021/05/20 12:43:14;;;;;;;4.13;2.80;;;15.90;99.90;;;;;;5048344;28;20232;-53
2021/05/20 12:45:53;;;;;;;2.60;2.40;;;16.30;99.90;;;;;;5047930;28;20246;-55
2021/05/20 12:48:32;;;;;;;4.70;2.83;;;16.40;99.90;;;;;;5048497;28;20255;-52
2021/05/20 12:51:04;;;;;;;4.23;3.00;;;16.60;99.90;;;;;;5059190;28;20230;-51
2021/05/20 12:53:38;;;;;;;3.87;3.50;;;16.50;99.90;;;;;;5069272;28;20253;-51
2021/05/20 12:56:32;;;;;;;3.73;3.00;;;16.40;99.90;;;;;;5067917;28;20596;-51
2021/05/20 12:59:05;;;;;;;3.50;3.23;;;16.50;99.90;;;;;;5065216;28;20453;-54
2021/05/20 13:01:39;;;;;;;3.80;3.10;;;16.40;99.90;;;;;;5067442;28;20226;-52
2021/05/20 13:04:10;;;;;;;4.93;3.27;;;16.60;99.90;;;;;;5067851;28;20236;-51
2021/05/20 13:06:39;;;;;;;4.00;3.57;;;16.50;99.90;;;;;;5067802;28;20250;-54